x

9076033 - Little Rapids, Mi (ltrm4) Weather Station

2:30pm - Tue 25th Nov 2014 All times are CST. -6 hours from GMT.

  • Wind
    6mph, 11mph gusts
  • Air Temp 26°f
  • Sea Pressure 1012.1mb
  • 9076033 - Little Rapids, Mi
  • 9076033 - Little Rapids, Mi

More Historic Weather Station data

Upgrade to MSW Pro to gain access to the past 30 days of data for over 8000 Wavebouys and Weather Stations around the globe.

Join Pro

Comparision Forecast

View Surf forecast
   
Tue 11/25 2:30pm 6 11 mph 1012.1mb 26f
2:24pm 6 10 mph 1012mb 26f
2:18pm 9 11 mph 1011.7mb 26f
2:12pm 7 9 mph 1011.5mb 27f
2:06pm 6 9 mph 1011.4mb 26f
2:00pm 7 11 mph 1011.4mb 26f
1:54pm 6 13 mph 1011.3mb 26f
1:48pm 7 11 mph 1011.2mb 26f
1:42pm 8 11 mph 1011.1mb 26f
1:36pm 7 9 mph 1011mb 26f
1:30pm 6 9 mph 1010.9mb 26f
1:24pm 7 10 mph 1010.9mb 26f
1:18pm 7 9 mph 1010.8mb 26f
1:12pm 7 10 mph 1010.7mb 25f
1:06pm 7 11 mph 1010.6mb 25f
1:00pm 7 9 mph 1010.5mb 25f
12:54pm 7 10 mph 1010.3mb 25f
12:48pm 6 8 mph 1010.2mb 25f
12:42pm 5 7 mph 1010.1mb 25f
12:36pm 2 5 mph 1010mb 24f
12:30pm 3 5 mph 1010mb 24f
12:24pm 2 6 mph 1009.9mb 24f
12:18pm 5 6 mph 1009.8mb 24f
12:12pm 5 9 mph 1009.7mb 24f
12:06pm 7 10 mph 1009.5mb 24f
12:00pm 7 9 mph 1009.4mb 24f
11:54am 7 10 mph 1009.3mb 24f
11:48am 8 10 mph 1009.2mb 24f
11:42am 7 10 mph 1009.1mb 24f
11:36am 7 9 mph 1008.9mb 24f
11:30am 9 11 mph 1008.8mb 23f
11:24am 9 13 mph 1008.7mb 24f
11:18am 8 10 mph 1008.6mb 24f
11:12am 7 9 mph 1008.6mb 24f
11:06am 6 8 mph 1008.5mb 24f
11:00am 7 10 mph 1008.5mb 24f
10:54am 8 10 mph 1008.5mb 24f
10:48am 8 13 mph 1008.5mb 24f
10:42am 9 13 mph 1008.5mb 23f
10:36am 7 10 mph 1008.4mb 24f
10:30am 7 10 mph 1008.4mb 23f
10:24am 9 13 mph 1008.3mb 24f
10:18am 10 14 mph 1008.2mb 23f
10:12am 11 14 mph 1008.1mb 24f
10:06am 13 15 mph 1007.9mb 24f
10:00am 10 13 mph 1007.8mb 23f
9:54am 10 13 mph 1007.7mb 23f
9:48am 8 10 mph 1007.6mb 23f
9:42am 9 11 mph 1007.5mb 23f
9:36am 9 11 mph 1007.3mb 23f
9:30am 8 13 mph 1007.2mb 24f
9:24am 9 14 mph 1007.1mb 24f
9:18am 8 11 mph 1007mb 23f
9:12am 9 11 mph 1006.8mb 23f
9:06am 10 14 mph 1006.7mb 23f
9:00am 9 14 mph 1006.6mb 23f
8:54am 9 15 mph 1006.5mb 23f
8:48am 11 15 mph 1006.4mb 23f
8:42am 11 16 mph 1006.3mb 23f
8:36am 11 15 mph 1006.2mb 23f
8:30am 11 16 mph 1006mb 23f
8:24am 13 15 mph 1005.9mb 23f
8:18am 11 15 mph - -
8:12am 8 14 mph - -
8:06am 9 13 mph - -
8:00am 9 15 mph 1005.6mb 23f
7:54am 9 13 mph 1005.5mb 23f
7:48am 11 17 mph 1005.3mb 24f
7:42am 10 13 mph 1005.1mb 24f
7:36am 10 14 mph 1004.9mb 24f
7:30am 10 14 mph 1004.7mb 24f
7:24am 11 14 mph 1004.6mb 23f
7:18am 9 13 mph 1004.5mb 23f
7:12am 7 8 mph 1004.3mb 24f
7:06am 7 9 mph 1004.2mb 24f
7:00am 8 10 mph 1004.1mb 24f
6:54am 9 13 mph 1004mb 24f
6:48am 9 13 mph 1003.8mb 24f
6:42am 6 10 mph 1003.6mb 24f
6:36am 10 14 mph 1003.5mb 24f
6:30am 11 16 mph 1003.3mb 24f
6:24am 13 15 mph 1003.1mb 24f
6:18am 11 18 mph 1002.9mb 24f
6:12am 14 17 mph 1002.7mb 24f
6:06am 13 15 mph 1002.6mb 24f
6:00am 10 15 mph 1002.5mb 24f
5:54am 13 15 mph 1002.4mb 24f
5:48am 11 15 mph 1002.2mb 24f
5:42am 8 11 mph 1002.1mb 24f
5:36am 9 10 mph 1001.9mb 25f
5:30am 8 13 mph 1001.9mb 24f
5:24am 8 14 mph 1001.8mb 24f
5:18am 10 14 mph 1001.6mb 24f
5:12am 11 14 mph 1001.5mb 24f
5:06am 11 15 mph 1001.4mb 24f
5:00am 11 14 mph 1001.3mb 25f
4:54am 14 17 mph 1001.2mb 25f
4:48am 15 18 mph 1001.1mb 25f
4:42am 15 17 mph 1001mb 24f
4:36am 15 17 mph 1000.9mb 25f
4:30am 14 17 mph 1000.8mb 25f
4:24am 14 18 mph 1000.6mb 24f
4:18am 15 20 mph 1000.6mb 25f
4:12am 16 20 mph 1000.5mb 25f
4:06am 15 20 mph 1000.3mb 25f
4:00am 14 18 mph 1000.3mb 25f
3:54am 14 18 mph 1000.1mb 25f
3:48am 15 17 mph 1000mb 25f
3:42am 15 18 mph 999.8mb 25f
3:36am 13 18 mph 999.7mb 25f
3:30am 13 17 mph 999.6mb 26f
3:24am 11 15 mph 999.5mb 26f
3:18am 10 15 mph 999.3mb 26f
3:12am 7 14 mph 999.2mb 26f
3:06am 9 13 mph 999.2mb 26f
3:00am 7 11 mph 999.1mb 26f
2:54am 9 11 mph 999mb 26f
2:48am 9 13 mph 998.9mb 26f
2:42am 13 15 mph 998.8mb 26f
2:36am 13 16 mph 998.7mb 26f
2:30am 11 15 mph 998.5mb 26f
2:24am 11 15 mph 998.4mb 26f
2:18am 14 16 mph 998.2mb 26f
2:12am 13 14 mph 998.2mb 27f
2:06am 10 13 mph 998.1mb 27f
2:00am 8 10 mph 998mb 27f
1:54am 9 13 mph 997.9mb 27f
1:48am 10 15 mph 997.7mb 27f
1:42am 14 16 mph 997.6mb 27f
1:36am 11 14 mph 997.4mb 27f
1:30am 8 10 mph 997.3mb 27f
1:24am 8 13 mph 997.1mb 27f
1:18am 11 15 mph 996.9mb 27f
1:12am 9 14 mph 996.7mb 27f
1:06am 11 14 mph 996.6mb 28f
1:00am 11 14 mph 996.5mb 28f
12:54am 11 15 mph 996.3mb 27f
12:48am 11 14 mph 996.2mb 28f
12:42am 11 15 mph 996.1mb 28f
12:36am 9 13 mph 996mb 28f
12:30am 10 13 mph 995.9mb 28f
12:24am 11 15 mph 995.8mb 28f
12:18am 9 13 mph 995.8mb 28f
12:12am 11 15 mph 995.7mb 28f
12:06am 14 16 mph 995.5mb 28f
12:00am 13 15 mph 995.4mb 28f
Mon 11/24 11:54pm 10 15 mph 995.3mb 28f
11:48pm 11 15 mph 995.2mb 28f
11:42pm 14 17 mph 995mb 28f
11:36pm 14 16 mph 994.8mb 28f
11:30pm 13 16 mph 994.5mb 28f
11:24pm 13 16 mph 994.4mb 28f
11:18pm 14 17 mph 994.2mb 28f
11:12pm 16 18 mph 994mb 28f
11:06pm 13 15 mph 993.9mb 29f
11:00pm 13 15 mph 993.7mb 29f
10:54pm 11 13 mph 993.6mb 29f
10:48pm 9 11 mph 993.4mb 29f
10:42pm 10 13 mph 993.2mb 29f
10:36pm 10 13 mph 993mb 29f
10:30pm 11 14 mph 992.8mb 29f
10:24pm 10 13 mph 992.6mb 30f
10:18pm 10 14 mph 992.5mb 30f
10:12pm 10 14 mph 992.3mb 30f
10:06pm 9 14 mph 992.2mb 30f
10:00pm 9 14 mph 992.1mb 30f
9:54pm 11 16 mph 991.9mb 30f
9:48pm 9 13 mph 991.7mb 31f
9:42pm 7 10 mph 991.7mb 31f
9:36pm 9 16 mph 991.5mb 31f
9:30pm 13 18 mph 991.3mb 31f
9:24pm 14 16 mph 991.1mb 31f
9:18pm 8 11 mph 991mb 31f
9:12pm 11 16 mph 990.8mb 32f
9:06pm 10 13 mph 990.7mb 32f
9:00pm 10 13 mph 990.5mb 32f
8:54pm 9 11 mph 990.4mb 32f
8:48pm 11 15 mph 990.3mb 32f
8:42pm 11 14 mph 990.1mb 33f
8:36pm 8 10 mph 989.9mb 33f
8:30pm 8 10 mph 989.8mb 33f
8:24pm 9 10 mph 989.6mb 33f
8:18pm 8 10 mph 989.5mb 33f
8:12pm 8 13 mph 989.4mb 34f
8:06pm 9 11 mph 989.2mb 34f
8:00pm 8 11 mph 989mb 35f
7:54pm 8 10 mph 988.8mb 35f
7:48pm 7 10 mph 988.6mb 35f
7:42pm 8 13 mph 988.5mb 36f
7:36pm 10 14 mph 988.3mb 36f
7:30pm 10 15 mph 988.1mb 36f
7:24pm 11 14 mph 988mb 37f
7:18pm 10 13 mph 987.8mb 37f
7:12pm 9 13 mph 987.7mb 37f
7:06pm 9 13 mph 987.6mb 37f
7:00pm 8 11 mph 987.5mb 37f
6:54pm 9 13 mph 987.3mb 38f
6:48pm 7 13 mph 987.2mb 38f
6:42pm 7 9 mph 987mb 38f
6:36pm 6 8 mph 986.8mb 37f
6:30pm 7 9 mph 986.7mb 37f
6:24pm 7 11 mph 986.6mb 37f
6:18pm 8 10 mph 986.5mb 37f
6:12pm 8 11 mph 986.4mb 37f
6:06pm 8 11 mph 986.2mb 37f
6:00pm 9 14 mph 986.1mb 37f
5:54pm 9 14 mph 986mb 37f
5:48pm 8 14 mph 985.9mb 37f
5:42pm 10 16 mph 985.8mb 37f
5:36pm 11 15 mph 985.7mb 37f
5:30pm 9 14 mph 985.6mb 37f
5:24pm 11 14 mph 985.5mb 38f
5:18pm 10 15 mph 985.5mb 38f
5:12pm 9 11 mph 985.4mb 38f
5:06pm 9 14 mph 985.3mb 38f
5:00pm 8 11 mph 985.2mb 38f
4:54pm 8 11 mph 985.1mb 38f
4:48pm 9 11 mph 985mb 38f
4:42pm 7 13 mph 984.9mb 38f
4:36pm 9 13 mph 984.8mb 38f
4:30pm 9 14 mph 984.7mb 38f
4:24pm 9 13 mph 984.5mb 38f
4:18pm 8 15 mph 984.3mb 38f
4:12pm 10 13 mph 984.2mb 38f
4:06pm 9 11 mph 984mb 38f
4:00pm 9 13 mph 983.8mb 39f
3:54pm 8 11 mph 983.7mb 39f
3:48pm 8 15 mph 983.5mb 40f
3:42pm 8 10 mph 983.3mb 40f
3:36pm 8 9 mph 983.2mb 40f
3:30pm 7 10 mph 983.1mb 40f
3:24pm 8 13 mph 983mb 40f
3:18pm 8 11 mph 982.9mb 40f
3:12pm 10 13 mph 982.8mb 40f
3:06pm 10 15 mph 982.7mb 40f
3:00pm 9 15 mph 982.6mb 40f
2:54pm 9 13 mph 982.5mb 40f
2:48pm 8 10 mph 982.4mb 40f
2:42pm 9 11 mph 982.2mb 40f
2:36pm 7 13 mph 982.1mb 40f
2:30pm 9 15 mph 982mb 40f
2:24pm 8 14 mph 981.9mb 40f
2:18pm 8 15 mph 981.7mb 40f
2:12pm 9 14 mph 981.6mb 41f
2:06pm 9 14 mph 981.4mb 41f
2:00pm 9 14 mph 981.2mb 41f
1:54pm 9 14 mph 981.1mb 41f
1:48pm 10 15 mph 981mb 41f
1:42pm 8 13 mph 980.9mb 41f
1:36pm 10 14 mph 980.8mb 41f
1:30pm 8 13 mph 980.8mb 41f
1:18pm 8 15 mph 980.5mb 42f
1:12pm 8 11 mph 980.4mb 42f
1:06pm 6 9 mph 980.2mb 42f
1:00pm 7 10 mph 980.1mb 42f
12:54pm 7 13 mph 980mb 42f
12:48pm 8 10 mph 979.8mb 42f
12:42pm 8 10 mph 979.6mb 42f
12:36pm 8 10 mph 979.5mb 42f
12:30pm 8 13 mph 979.5mb 43f
12:24pm 6 9 mph 979.5mb 42f
12:18pm 2 5 mph 979.5mb 42f
12:12pm 3 5 mph 979.4mb 42f
12:06pm 3 6 mph 979.3mb 42f
12:00pm 6 7 mph 979.3mb 42f
11:54am 5 8 mph 979.2mb 42f
11:48am 5 8 mph 979.2mb 42f
11:42am 5 11 mph 979.1mb 42f
11:36am 6 10 mph 979.1mb 42f
11:30am 7 14 mph 979.1mb 42f
11:24am 7 9 mph 979mb 42f
11:18am 6 10 mph 978.9mb 42f
11:12am 7 9 mph 978.9mb 42f
11:06am 6 7 mph 978.8mb 42f
11:00am 5 7 mph 978.8mb 42f
10:54am 7 8 mph 978.8mb 42f
10:48am 5 7 mph 978.8mb 42f
10:42am 6 8 mph 978.8mb 42f
10:36am 6 8 mph 978.8mb 42f
10:30am 6 8 mph 978.8mb 42f
10:24am 6 8 mph 978.8mb 42f
10:18am 7 8 mph 978.7mb 42f
10:12am 6 8 mph 978.7mb 42f
10:06am 6 8 mph 978.7mb 42f
10:00am 6 7 mph 978.6mb 42f
9:54am 6 7 mph 978.5mb 41f
9:48am 5 6 mph 978.5mb 41f
9:42am 6 7 mph 978.4mb 41f
9:36am 5 7 mph 978.3mb 41f
9:30am 6 7 mph 978.2mb 41f
9:24am 6 8 mph 978.1mb 41f
9:18am 6 7 mph 978mb 41f
9:12am 5 7 mph 977.9mb 41f
9:06am 5 6 mph 977.8mb 41f
9:00am 3 6 mph 977.8mb 41f
8:54am 3 5 mph 977.7mb 40f
8:48am 3 5 mph 977.7mb 40f
8:42am 3 5 mph 977.7mb 40f
8:36am 2 5 mph 977.6mb 40f
8:30am 3 5 mph 977.6mb 40f
8:24am 3 5 mph 977.6mb 40f
8:18am 3 5 mph 977.5mb 40f
8:12am 3 5 mph 977.5mb 40f
8:06am 3 5 mph 977.5mb 40f
8:00am 3 5 mph 977.5mb 40f
7:54am 3
mph
977.5mb 40f
7:48am 3 5 mph 977.4mb 40f
7:42am 3 5 mph 977.4mb 40f
7:36am 3 5 mph 977.3mb 40f
7:30am 3
mph
977.2mb 40f
7:24am 3
mph
977.2mb 41f
7:18am 3
mph
977.2mb 41f
7:12am 2 3 mph 977.3mb 40f
7:06am 2
mph
977.3mb 40f
7:00am 1 3 mph 977.3mb 40f
6:54am 2 3 mph 977.3mb 41f
6:48am 2 3 mph 977.3mb 41f
6:42am 2 3 mph 977.3mb 41f
6:36am 2 3 mph 977.4mb 41f
6:30am 2
mph
977.4mb 41f
6:24am 2 3 mph 977.4mb 41f
6:18am  -  1 mph 977.5mb 41f
6:06am 5 6 mph 977.5mb 41f
6:00am 3 7 mph 977.6mb 41f
5:54am 5 7 mph 977.7mb 41f
5:48am 7 8 mph 977.9mb 42f
5:42am 8
mph
978mb 42f
5:36am 7 9 mph 978.1mb 42f
5:30am 7 9 mph 978.2mb 42f
5:24am 7 8 mph 978.3mb 42f
5:18am 7 8 mph 978.5mb 42f
5:12am 5 9 mph 978.6mb 42f
5:06am 2 5 mph 978.8mb 42f
5:00am 5 6 mph 978.9mb 42f
4:54am 5 6 mph 979mb 42f
4:48am 2 8 mph 979.2mb 42f
4:42am 5 8 mph 979.4mb 42f
4:36am 5 6 mph 979.6mb 42f
4:30am 6 10 mph 979.7mb 42f
4:24am 6 9 mph 979.9mb 42f
4:18am 7 10 mph 980.1mb 43f
4:12am 6 13 mph 980.2mb 43f
4:06am 7 13 mph 980.4mb 43f
4:00am 9 13 mph 980.5mb 43f
3:54am 9 13 mph 980.6mb 43f
3:48am 9 14 mph 980.7mb 43f
3:42am 11 15 mph 980.9mb 43f
3:36am 11 15 mph 981.1mb 43f
3:30am 9 13 mph 981.3mb 43f
3:24am 9 13 mph 981.6mb 43f
3:18am 9 13 mph 981.8mb 43f
3:12am 7 11 mph 982mb 43f
3:06am 8 14 mph 982.2mb 43f
3:00am 8 13 mph 982.5mb 43f
2:54am 8 14 mph 982.7mb 43f
2:48am 11 16 mph 982.8mb 44f
2:42am 9 14 mph 983.1mb 44f
2:36am 10 14 mph 983.5mb 44f
2:30am 8 13 mph 983.8mb 43f
2:24am 10 14 mph 984.1mb 44f
2:18am 8 13 mph 984.3mb 43f
2:12am 9 14 mph 984.7mb 43f
2:06am 9 13 mph 985mb 43f
2:00am 9 13 mph 985.3mb 43f
1:54am 9 11 mph 985.6mb 43f
1:48am 7 11 mph 985.8mb 43f
1:42am 10 14 mph 986.1mb 43f
1:36am 6 8 mph 986.4mb 42f
1:30am 7 9 mph 986.7mb 42f
1:24am 5 8 mph 986.9mb 42f
1:18am 6 9 mph 987.2mb 42f
1:12am 7 10 mph 987.4mb 42f
1:06am 9 14 mph 987.7mb 42f
1:00am 9 14 mph 987.9mb 42f
12:54am 10 15 mph 988.1mb 42f
12:48am 11 16 mph 988.4mb 42f
12:42am 11 17 mph 988.5mb 42f
12:36am 10 18 mph 988.7mb 42f
12:30am 14 22 mph 988.8mb 42f
12:24am 9 18 mph 989mb 42f
12:18am 9 15 mph 989.3mb 42f
12:12am 10 16 mph 989.4mb 42f
12:06am 14 17 mph 989.6mb 42f
12:00am 10 14 mph 989.8mb 42f
Sun 11/23 11:54pm 11 15 mph 990mb 42f
11:48pm 10 15 mph 990.2mb 43f
11:42pm 14 18 mph 990.5mb 43f
11:36pm 11 16 mph 990.7mb 42f
11:30pm 11 15 mph 991mb 42f
11:24pm 10 15 mph 991.2mb 42f
11:18pm 10 15 mph 991.4mb 42f
11:12pm 10 14 mph 991.7mb 42f
11:06pm 9 15 mph 992mb 42f
11:00pm 11 16 mph 992.2mb 42f
10:54pm 11 18 mph 992.6mb 42f
10:48pm 10 17 mph 992.9mb 42f
10:42pm 11 17 mph 993.3mb 42f
10:36pm 13 20 mph 993.4mb 42f
10:30pm 13 17 mph 993.6mb 42f
10:24pm 13 17 mph 993.7mb 42f
10:18pm 10 15 mph 994mb 42f
10:12pm 11 16 mph 994.3mb 42f
10:06pm 10 15 mph 994.6mb 43f
10:00pm 11 17 mph 994.8mb 43f
9:54pm 9 15 mph 995mb 43f
9:48pm 10 18 mph 995.1mb 43f
9:42pm 13 17 mph 995.1mb 43f
9:36pm 10 14 mph 995.3mb 43f
9:30pm 8 11 mph 995.4mb 43f
9:24pm 8 11 mph 995.6mb 43f
9:18pm 9 13 mph 995.8mb 43f
9:12pm 9 14 mph 995.9mb 42f
9:06pm 10 14 mph 996.1mb 42f
9:00pm 9 13 mph 996.3mb 42f
8:54pm 10 15 mph 996.5mb 42f
8:48pm 9 13 mph 996.5mb 42f
8:42pm 8 11 mph 996.7mb 42f
8:36pm 9 11 mph 996.8mb 42f
8:30pm 9 13 mph 996.9mb 42f
8:24pm 8 11 mph 997.1mb 42f
8:18pm 8 14 mph 997.2mb 42f
8:12pm 9 11 mph 997.3mb 42f
8:06pm 9 13 mph 997.4mb 42f
8:00pm 8 13 mph 997.5mb 42f
7:54pm 9 13 mph 997.6mb 42f
7:48pm 9 13 mph 997.8mb 42f
7:42pm 8 11 mph 998mb 42f
7:36pm 8 14 mph 998.1mb 42f
7:30pm 8 13 mph 998.1mb 42f
7:24pm 8 11 mph 998.2mb 42f
7:18pm 9 13 mph 998.2mb 42f
7:12pm 9 13 mph 998.4mb 42f
7:06pm 9 11 mph 998.5mb 42f
7:00pm 8 14 mph 998.6mb 42f
6:54pm 8 11 mph 998.7mb 42f
6:48pm 8 11 mph 998.8mb 42f
6:42pm 9 13 mph 998.8mb 42f
6:36pm 9 14 mph 998.9mb 42f
6:30pm 9 13 mph 999mb 42f
6:24pm 10 15 mph 999mb 42f
6:18pm 8 11 mph 999.1mb 42f
6:12pm 7 10 mph 999.2mb 42f
6:06pm 6 9 mph 999.2mb 42f
6:00pm 6 10 mph 999.3mb 42f
5:54pm 5 9 mph 999.3mb 42f
5:48pm 7 13 mph 999.3mb 42f
5:42pm 8 11 mph 999.3mb 42f
5:36pm 7 9 mph 999.4mb 42f
5:30pm 7 9 mph 999.5mb 42f
5:24pm 6 8 mph 999.6mb 42f
5:18pm 5 8 mph 999.8mb 42f
5:12pm 5 6 mph 999.8mb 42f
5:06pm 6 8 mph 999.8mb 42f
4:54pm 7 8 mph 999.9mb 42f
4:48pm 7 8 mph 1000mb 42f
4:42pm 6 7 mph 1000.1mb 42f
4:36pm 5 8 mph 1000.2mb 42f
4:30pm 7 9 mph 1000.2mb 42f
4:24pm 7 10 mph 1000.2mb 42f
4:18pm 9 10 mph 1000.2mb 42f
4:06pm 7 8 mph 1000.3mb 43f
4:00pm 2 6 mph 1000.5mb 43f
3:54pm 5 8 mph 1000.7mb 44f
3:48pm 6 11 mph 1000.6mb 43f
3:42pm 9 14 mph 1000.4mb 44f
3:36pm 11 14 mph 1000.5mb 44f
3:30pm 11 14 mph 1000.7mb 43f
3:24pm 9 13 mph 1000.8mb 43f
3:18pm 8 11 mph 1001mb 43f
3:12pm 8 13 mph 1001.1mb 43f
3:06pm 9 14 mph 1001.2mb 44f
3:00pm 9 11 mph 1001.1mb 43f
2:54pm 8 10 mph 1001.3mb 43f
2:48pm 8 10 mph 1001.5mb 43f
2:42pm 7 9 mph 1001.6mb 43f
2:36pm 7 9 mph 1001.7mb 43f
2:30pm 7 9 mph 1001.7mb 43f
2:24pm 7 9 mph 1001.8mb 43f
2:18pm 7 9 mph 1001.8mb 43f
2:12pm 6 7 mph 1001.7mb 43f
2:06pm 7 11 mph 1002mb 43f
2:00pm 9 13 mph 1001.9mb 43f
1:54pm 8 14 mph 1001.7mb 43f
1:48pm 10 14 mph 1001.8mb 43f
1:42pm 11 15 mph 1001.8mb 43f
1:36pm 11 15 mph 1001.9mb 43f
1:30pm 13 16 mph 1001.9mb 43f
1:24pm 14 17 mph 1001.8mb 43f
1:18pm 13 17 mph 1002mb 42f
1:12pm 11 15 mph 1002.2mb 42f
1:06pm 9 13 mph 1002.4mb 42f
1:00pm 11 15 mph 1002.5mb 42f
12:54pm 9 15 mph 1002.5mb 42f
12:48pm 9 13 mph 1002.5mb 42f
12:42pm 11 15 mph 1002.5mb 42f
12:36pm 9 11 mph 1002.7mb 42f
12:30pm 10 14 mph 1002.6mb 42f
12:24pm 9 16 mph 1002.7mb 42f
12:18pm 11 16 mph 1002.8mb 42f
12:12pm 11 15 mph 1002.9mb 42f
12:06pm 9 13 mph 1003.1mb 42f
12:00pm 10 11 mph 1003.1mb 42f
11:54am 9 13 mph 1003.2mb 42f
11:48am 9 13 mph 1003.3mb 41f
11:42am 9 13 mph 1003.4mb 41f
11:36am 8 13 mph 1003.7mb 41f
11:30am 8 11 mph 1003.9mb 41f
11:24am 9 11 mph 1004mb 41f
11:18am 9 11 mph 1004.1mb 41f
11:12am 9 11 mph 1004.2mb 41f
11:06am 10 15 mph 1004.3mb 41f
11:00am 10 14 mph 1004.4mb 41f
10:54am 11 14 mph 1004.5mb 41f
10:48am 9 13 mph 1004.7mb 40f
10:42am 9 13 mph 1004.8mb 40f
10:36am 10 13 mph 1004.8mb 40f
10:30am 10 14 mph 1004.8mb 41f
10:24am 9 11 mph 1005mb 40f
10:18am 9 13 mph 1005.1mb 40f
10:12am 10 13 mph 1005.2mb 40f
10:06am 10 11 mph 1005.3mb 40f
10:00am 10 13 mph 1005.3mb 40f
9:54am 11 13 mph 1005.4mb 40f
9:48am 10 13 mph 1005.3mb 40f
9:42am 9 11 mph 1005.4mb 40f
9:36am 9 11 mph 1005.4mb 40f
9:30am 8 11 mph 1005.5mb 39f
9:24am 8 10 mph 1005.5mb 39f
9:18am 8 10 mph 1005.5mb 39f
9:12am 6 9 mph 1005.4mb 39f
9:06am 7 11 mph 1005.3mb 39f
9:00am 9 13 mph 1005.3mb 39f
8:54am 8 13 mph 1005.5mb 39f
8:48am 9 11 mph 1005.5mb 39f
8:42am 9 13 mph 1005.5mb 39f
8:36am 10 14 mph 1005.5mb 39f
8:30am 9 13 mph 1005.3mb 38f
8:24am 9 13 mph 1005.4mb 38f
8:18am 7 10 mph 1005.7mb 38f
8:12am 8 11 mph 1005.8mb 38f
8:06am 8 13 mph 1005.8mb 38f
8:00am 9 13 mph 1005.9mb 38f
7:54am 9 11 mph 1006mb 38f
7:48am 8 13 mph 1005.9mb 38f
7:42am 9 14 mph 1005.8mb 38f
7:36am 8 13 mph 1005.8mb 38f
7:30am 9 10 mph 1005.8mb 38f
7:24am 8 10 mph 1005.9mb 38f
7:18am 8 10 mph 1006.1mb 37f
7:12am 7 10 mph 1006.3mb 37f
7:06am 8 10 mph 1006.4mb 37f
7:00am 7 10 mph 1006.3mb 37f
6:54am 7 9 mph 1006.1mb 37f
6:48am 7 14 mph 1006.5mb 37f
6:42am 9 14 mph 1006mb 37f
6:36am 8 11 mph 1006.2mb 37f
6:30am 7 13 mph 1006.4mb 37f
6:24am 9 13 mph 1006.1mb 37f
6:18am 8 10 mph 1006.3mb 37f
6:12am 8 13 mph 1006.4mb 37f
6:06am 7 13 mph 1006.6mb 37f
6:00am 8 13 mph 1006.5mb 37f
5:54am 9 10 mph 1006.5mb 37f
5:48am 8 10 mph 1006.6mb 37f
5:42am 9 11 mph 1006.6mb 37f
5:36am 7 10 mph 1006.9mb 36f
5:30am 7 10 mph 1006.9mb 36f
5:24am 7 11 mph 1006.8mb 36f
5:18am 8 9 mph 1007mb 36f
5:12am 6 7 mph 1007.2mb 36f
5:06am 6 7 mph 1007.3mb 36f
4:54am 6 7 mph 1007.5mb 36f
4:48am 3 5 mph 1007.5mb 36f
4:42am 2 3 mph 1007.6mb 36f
4:36am 1 3 mph 1007.5mb 36f
4:30am 1 5 mph 1007.6mb 36f
4:24am 3 5 mph 1007.5mb 36f
4:18am 2 3 mph 1007.5mb 36f
4:12am 2 5 mph 1007.5mb 36f
4:06am 3 6 mph 1007.4mb 36f
4:00am 6 7 mph 1007.1mb 36f
3:54am 6 7 mph 1007.2mb 36f
3:48am 6 9 mph 1007.4mb 36f
3:42am 6 9 mph 1007.4mb 36f
3:36am 8 11 mph 1007.1mb 35f
3:30am 9 13 mph 1007mb 35f
3:24am 7 9 mph 1007.1mb 35f
3:18am 7 8 mph 1007mb 35f
3:12am 7 9 mph 1006.9mb 35f
3:06am 8 10 mph 1007mb 35f
3:00am 7 10 mph 1007.3mb 35f
2:54am 7 9 mph 1007.5mb 35f
2:48am 8 10 mph 1007.5mb 35f
2:42am 7 8 mph 1007.7mb 35f
2:36am 6 8 mph 1007.8mb 35f
2:30am 6 8 mph 1007.8mb 35f
2:24am 6
mph
1008mb 35f
2:18am 5 6 mph 1008.1mb 35f
2:12am 5 7 mph 1008.1mb 35f
2:06am 6 7 mph 1007.9mb 35f
2:00am 6 8 mph 1007.8mb 35f
1:54am 6 7 mph 1007.9mb 35f
1:48am 6 8 mph 1007.8mb 35f
1:42am 6 8 mph 1008mb 35f
1:36am 6 7 mph 1008mb 35f
1:30am 6 7 mph 1008mb 35f
1:24am 5 6 mph 1008mb 35f
1:18am 5 6 mph 1008mb 35f
1:12am 5
mph
1008mb 35f
1:06am 3
mph
1008mb 35f
1:00am 2 5 mph 1008.2mb 35f
12:54am 3 5 mph 1008.1mb 35f
12:48am 3 5 mph 1008.2mb 35f
12:42am 3 5 mph 1008.3mb 35f
12:36am 2 5 mph 1008.3mb 35f
12:30am 2 3 mph 1008.3mb 35f
12:24am 2 5 mph 1008.4mb 35f
12:18am 3 5 mph 1008.4mb 35f
12:12am 3 5 mph 1008.3mb 35f
12:06am 2 5 mph 1008.3mb 35f
12:00am 3 5 mph 1008.1mb 35f
Sat 11/22 11:54pm 3 5 mph 1008mb 35f
11:48pm 3
mph
1008.1mb 35f
11:42pm 3 5 mph 1008mb 35f
11:36pm 3 5 mph 1008mb 35f
11:30pm 2
mph
1008mb 35f
11:24pm  -  2 mph 1007.7mb 35f
11:18pm 1 2 mph 1007.9mb 35f
11:12pm 1 2 mph 1008.1mb 35f
11:06pm 2
mph
1008.1mb 35f
11:00pm 2 3 mph 1008.2mb 35f
10:54pm 2
mph
1008.2mb 35f
10:48pm 2 3 mph 1008.2mb 35f
10:42pm 3 5 mph 1008.1mb 34f
10:36pm 2 3 mph 1007.9mb 34f
10:30pm 2 3 mph 1007.9mb 35f
10:24pm 2
mph
1007.8mb 35f
10:18pm 2
mph
1007.8mb 35f
10:12pm 2 3 mph 1007.8mb 35f
10:06pm 2 3 mph 1007.7mb 35f
10:00pm 2 3 mph 1007.5mb 35f
9:54pm 2 3 mph 1007.6mb 35f
9:48pm 2 3 mph 1007.5mb 35f
9:42pm 1 2 mph 1007.4mb 35f
9:36pm 2 3 mph 1007.4mb 35f
9:30pm 2 3 mph 1007.4mb 35f
9:24pm 2 3 mph 1007.4mb 35f
9:18pm  -  1 mph 1007.4mb 35f
9:12pm  -  2 mph 1007.1mb 35f
9:06pm 2 3 mph 1007.2mb 35f
9:00pm 2 5 mph 1007.3mb 35f
8:54pm 3 5 mph 1007.3mb 35f
8:48pm 5 6 mph 1007.2mb 35f
8:42pm 5 6 mph 1007.1mb 35f
8:36pm 6 8 mph 1007mb 36f
8:30pm 2 5 mph 1006.9mb 36f
8:24pm 5 7 mph 1006.9mb 35f
8:18pm 5 6 mph 1007mb 36f
8:12pm 2 3 mph 1006.9mb 35f
8:06pm 2 6 mph 1006.9mb 36f
8:00pm 6 7 mph 1007mb 36f
7:54pm 3 7 mph 1006.9mb 35f
7:48pm 5 6 mph 1007mb 35f
7:42pm 2 3 mph 1007mb 35f
7:36pm 3 5 mph 1007.1mb 36f
7:30pm 2 5 mph 1007mb 36f
7:24pm 2 3 mph 1007mb 35f
7:18pm 3 5 mph 1007mb 36f
7:12pm 2 3 mph 1006.9mb 36f
7:06pm 2 6 mph 1006.9mb 36f
7:00pm 2 5 mph 1006.8mb 36f
6:54pm 3 6 mph 1006.8mb 36f
6:48pm 3 7 mph 1006.8mb 36f
6:42pm 3 5 mph 1006.8mb 36f
6:36pm 3 7 mph 1006.7mb 36f
6:30pm 3 6 mph 1006.7mb 36f
6:24pm 2 3 mph 1006.7mb 36f
6:18pm 2 5 mph 1006.6mb 36f
6:12pm 2 3 mph 1006.6mb 36f
6:06pm 2 3 mph 1006.5mb 36f
6:00pm 2 3 mph 1006.5mb 36f
5:54pm 1 2 mph 1006.5mb 36f
5:48pm 1 2 mph 1006.5mb 36f
5:36pm 2 3 mph 1006.5mb 36f
5:30pm 2 3 mph 1006.5mb 36f
5:24pm 2 3 mph 1006.5mb 36f
5:18pm 2 5 mph 1006.4mb 36f
5:12pm 2 5 mph 1006.4mb 36f
5:06pm 2 3 mph 1006.3mb 36f
5:00pm 2 3 mph 1006.3mb 36f
4:54pm 2 3 mph 1006.3mb 36f
4:48pm 2 5 mph 1006.3mb 36f
4:42pm 2 3 mph 1006.2mb 36f
4:36pm 3 6 mph 1006.2mb 36f
4:30pm 3 6 mph 1006.2mb 36f
4:24pm 2 6 mph 1006.2mb 36f
4:18pm 6 7 mph 1006.2mb 36f
4:12pm 6 7 mph 1006.2mb 36f
4:06pm 5 8 mph 1006.3mb 36f
4:00pm 7 8 mph 1006.3mb 36f
3:54pm 6 7 mph 1006.3mb 36f
3:48pm 6 8 mph 1006.3mb 37f
3:42pm 5 9 mph 1006.2mb 36f
3:36pm 6 9 mph 1006.1mb 36f
3:30pm 7 10 mph 1006.2mb 37f
3:24pm 6 11 mph 1006.1mb 37f
3:18pm 6 9 mph 1006.1mb 37f
3:12pm 10 15 mph 1006.1mb 37f
3:06pm 8 13 mph 1006mb 37f
3:00pm 8 13 mph 1005.9mb 37f
2:54pm 8 11 mph 1005.9mb 37f
2:48pm 9 14 mph 1005.9mb 37f
2:42pm 9 13 mph 1005.8mb 37f
2:36pm 7 10 mph 1005.8mb 37f
2:30pm 7 10 mph 1005.8mb 37f
2:24pm 8 13 mph 1005.7mb 37f
2:18pm 9 10 mph 1005.8mb 37f
2:12pm 6 11 mph 1005.9mb 37f
2:06pm 8 13 mph 1005.8mb 37f
2:00pm 8 15 mph 1005.8mb 37f
1:54pm 8 10 mph 1005.7mb 37f
1:48pm 7 9 mph 1005.6mb 37f
1:42pm 8 11 mph 1005.6mb 37f
1:36pm 7 13 mph 1005.6mb 37f
1:30pm 5 9 mph 1005.6mb 37f
1:24pm 6 11 mph 1005.7mb 37f
1:18pm 7 11 mph 1005.8mb 37f
1:12pm 8 13 mph 1005.8mb 37f
1:06pm 8 13 mph 1005.8mb 37f
1:00pm 8 10 mph 1005.7mb 37f
12:54pm 7 11 mph 1005.6mb 37f
12:48pm 8 10 mph 1005.6mb 37f
12:42pm 9 14 mph 1005.6mb 37f
12:36pm 11 15 mph 1005.7mb 37f
12:30pm 8 13 mph 1005.7mb 37f
12:24pm 7 17 mph 1005.6mb 37f
12:18pm 8 14 mph 1005.6mb 37f
12:12pm 9 16 mph 1006mb 37f
12:06pm 14 18 mph 1006mb 37f
12:00pm 10 17 mph 1006.1mb 37f
11:54am 10 16 mph 1006mb 37f
11:48am 9 17 mph 1006mb 37f
11:42am 5 13 mph 1006.1mb 37f
11:36am 10 14 mph 1006mb 37f
11:30am 8 14 mph 1006.1mb 37f
11:24am 9 17 mph 1006.1mb 37f
11:18am 10 16 mph 1006.3mb 37f
11:12am 8 13 mph 1006.3mb 37f
11:06am 8 14 mph 1006.4mb 37f
11:00am 9 14 mph 1006.4mb 37f
10:54am 7 16 mph 1006.3mb 37f
10:48am 10 17 mph 1006.4mb 37f
10:42am 14 17 mph 1006.5mb 37f
10:36am 8 14 mph 1006.7mb 37f
10:30am 9 26 mph 1006.8mb 37f
10:24am 14 21 mph 1006.9mb 37f
10:18am 15 22 mph 1006.9mb 37f
10:12am 16 22 mph 1006.8mb 37f
10:06am 10 17 mph 1006.9mb 37f
10:00am 11 20 mph 1007mb 37f
9:54am 9 16 mph 1007mb 37f
9:48am 15 22 mph 1007.1mb 37f
9:42am 14 20 mph 1007.1mb 37f
9:36am 11 16 mph 1007.3mb 37f
9:30am 10 15 mph 1007.3mb 37f
9:24am 10 15 mph 1007.4mb 37f
9:18am 8 14 mph 1007.4mb 37f
9:12am 10 14 mph 1007.4mb 37f
9:06am 10 14 mph 1007.4mb 37f
9:00am 9 16 mph 1007.4mb 37f
8:54am 9 13 mph 1007.3mb 37f
8:48am 7 15 mph 1007.4mb 37f
8:42am 10 20 mph 1007.5mb 37f
8:36am 14 17 mph 1007.6mb 37f
8:30am 13 22 mph 1007.6mb 37f
8:24am 9 17 mph 1007.6mb 37f
8:18am 10 16 mph 1007.6mb 37f
8:12am 10 22 mph 1007.6mb 37f
8:06am 10 15 mph 1007.7mb 37f
8:00am 10 16 mph 1007.6mb 37f
7:54am 10 20 mph 1007.7mb 37f
7:48am 13 16 mph 1007.7mb 37f
7:42am 10 20 mph 1007.8mb 37f
7:36am 13 21 mph 1007.8mb 37f
7:30am 10 22 mph 1007.9mb 37f
7:24am 13 20 mph 1008mb 37f
7:18am 10 20 mph 1008mb 36f
7:12am 16 21 mph 1008.1mb 37f
7:06am 14 20 mph 1008.1mb 37f
7:00am 10 17 mph 1008.2mb 36f
6:54am 15 21 mph 1008.2mb 37f
6:48am 11 20 mph 1008.3mb 37f
6:42am 11 22 mph 1008.3mb 37f
6:36am 13 20 mph 1008.3mb 37f
6:30am 13 23 mph 1008.3mb 37f
6:24am 13 20 mph 1008.3mb 37f
6:18am 14 18 mph 1008.3mb 37f
6:12am 13 20 mph 1008.3mb 37f
6:06am 11 21 mph 1008.4mb 37f
6:00am 10 21 mph 1008.3mb 37f
5:54am 14 21 mph 1008.5mb 37f
5:48am 14 20 mph 1008.5mb 37f
5:42am 13 21 mph 1008.5mb 37f
5:36am 8 18 mph 1008.5mb 36f
5:30am 11 18 mph 1008.6mb 36f
5:24am 9 15 mph 1008.6mb 35f
5:18am 9 14 mph 1008.7mb 35f
5:12am 8 9 mph 1008.9mb 35f
5:06am 8 15 mph 1009mb 35f
5:00am 8 11 mph 1009.1mb 35f
4:54am 8 13 mph 1009mb 35f
4:48am 10 14 mph 1009.2mb 35f
4:42am 9 14 mph 1009.1mb 35f
4:36am 10 14 mph 1009mb 35f
4:30am 9 14 mph 1009.1mb 35f
4:24am 8 15 mph 1009.1mb 35f
4:18am 8 14 mph 1009.1mb 35f
4:12am 8 14 mph 1009.3mb 35f
4:06am 8 17 mph 1009.4mb 35f
4:00am 11 21 mph 1009.3mb 35f
3:54am 14 21 mph 1009.1mb 35f
3:48am 13 17 mph 1009.8mb 35f
3:42am 10 16 mph 1010.1mb 35f
3:36am 10 16 mph 1010.1mb 35f
3:30am 9 15 mph 1010.3mb 35f
3:24am 9 16 mph 1010.4mb 34f
3:18am 7 15 mph 1010.5mb 34f
3:12am 7 13 mph 1010.6mb 34f
3:06am 8 13 mph 1010.8mb 34f
3:00am 14 20 mph 1010.8mb 35f
2:54am 9 18 mph 1010.9mb 34f
2:48am 6 14 mph 1010.9mb 34f
2:42am 9 14 mph 1010.9mb 34f
2:36am 7 10 mph 1011.1mb 34f
2:30am 8 11 mph 1011.1mb 34f
2:24am 6 9 mph 1011.3mb 34f
2:18am 7 15 mph 1011.2mb 34f
2:12am 7 14 mph 1011.3mb 33f
2:06am 7 13 mph 1011.5mb 33f
2:00am 7 9 mph 1011.6mb 33f
1:54am 7 9 mph 1011.9mb 33f
1:48am 8 10 mph 1011.9mb 32f
1:42am 7 9 mph 1012mb 32f
1:36am 7 9 mph 1012mb 32f
1:30am 5 9 mph 1012mb 31f
1:24am 6 8 mph 1012mb 32f
1:18am 7 9 mph 1012mb 32f
1:12am 9 11 mph 1012mb 32f
1:06am 8 10 mph 1012.1mb 31f
1:00am 8 11 mph 1012.3mb 31f
12:54am 7 9 mph 1012.3mb 31f
12:48am 5 7 mph 1012.5mb 31f
12:42am 6 8 mph 1012.5mb 31f
12:36am 7 9 mph 1012.6mb 30f
12:30am 8 11 mph 1012.6mb 30f
12:24am 7 10 mph 1012.8mb 30f
12:18am 7 11 mph 1012.9mb 30f
12:12am 7 10 mph 1013mb 30f
12:06am 7 10 mph 1013.1mb 30f
12:00am 7 11 mph 1013.2mb 29f
Fri 11/21 11:54pm 7 11 mph 1013.2mb 29f
11:48pm 7 10 mph 1013.3mb 29f
11:42pm 6 9 mph 1013.5mb 29f
11:36pm 7 10 mph 1013.6mb 29f
11:30pm 7 10 mph 1013.7mb 29f
11:24pm 8 11 mph 1013.7mb 29f
11:18pm 9 13 mph 1013.8mb 29f
11:12pm 8 10 mph 1013.9mb 28f
11:06pm 7 11 mph 1014.1mb 28f
11:00pm 7 10 mph 1014.2mb 28f
10:54pm 7 11 mph 1014.3mb 28f
10:48pm 8 11 mph 1014.4mb 28f
10:42pm 8 13 mph 1014.4mb 28f
10:36pm 8 13 mph 1014.5mb 28f
10:30pm 8 13 mph 1014.6mb 27f
10:24pm 8 11 mph 1014.7mb 27f
10:18pm 7 9 mph 1014.8mb 27f
10:12pm 6 9 mph 1014.9mb 27f
10:06pm 9 14 mph 1015.1mb 27f
10:00pm 8 11 mph 1015.2mb 27f
9:54pm 7 10 mph 1015.4mb 27f
9:48pm 8 10 mph 1015.5mb 27f
9:42pm 7 11 mph 1015.6mb 27f
9:36pm 8 13 mph 1015.7mb 27f
9:30pm 8 11 mph 1015.8mb 27f
9:24pm 8 14 mph 1015.9mb 27f
9:18pm 8 10 mph 1016mb 26f